createdAt,value
2022-08-28T00:00:29.595Z,98044.56
2022-08-28T00:02:57.444Z,98043.91
2022-08-28T00:05:26.612Z,98045.47
2022-08-28T00:07:53.853Z,98040.75
2022-08-28T00:10:22.572Z,98047.16
2022-08-28T00:12:50.461Z,98050.81
2022-08-28T00:15:22.314Z,98048.44
2022-08-28T00:17:49.198Z,98050.16
2022-08-28T00:20:18.749Z,98044.88
2022-08-28T00:22:45.751Z,98044.00
2022-08-28T00:25:14.674Z,98048.13
2022-08-28T00:27:53.317Z,98043.91
2022-08-28T00:30:32.689Z,98045.41
2022-08-28T00:33:07.139Z,98037.69
2022-08-28T00:35:33.819Z,98034.94
2022-08-28T00:38:00.980Z,98032.03
2022-08-28T00:40:32.959Z,98032.03
2022-08-28T00:43:05.395Z,98027.41
2022-08-28T00:45:37.299Z,98020.25
2022-08-28T00:48:06.181Z,98024.19
2022-08-28T00:50:56.815Z,98027.78
2022-08-28T00:53:32.973Z,98018.72
2022-08-28T00:56:04.188Z,98027.78
2022-08-28T00:58:38.245Z,98029.66
2022-08-28T01:01:04.959Z,98031.53
2022-08-28T01:03:31.723Z,98022.00
2022-08-28T01:05:58.525Z,98030.56
2022-08-28T01:08:25.191Z,98029.06
2022-08-28T01:11:01.189Z,98022.56
2022-08-28T01:13:28.669Z,98028.31
2022-08-28T01:15:56.155Z,98027.97
2022-08-28T01:18:24.071Z,98038.06
2022-08-28T01:21:11.682Z,98038.91
2022-08-28T01:23:54.776Z,98042.31
2022-08-28T01:26:22.238Z,98044.00
2022-08-28T01:28:49.200Z,98044.88
2022-08-28T01:31:17.205Z,98044.00
2022-08-28T01:33:48.184Z,98040.41
2022-08-28T01:36:16.869Z,98050.69
2022-08-28T01:39:21.947Z,98039.94
2022-08-28T01:41:52.306Z,98049.53
2022-08-28T01:44:25.386Z,98033.97
2022-08-28T01:46:55.473Z,98045.59
2022-08-28T01:49:23.232Z,98033.63
2022-08-28T01:51:50.046Z,98042.88
2022-08-28T01:54:18.958Z,98054.00
2022-08-28T01:56:45.941Z,98057.38
2022-08-28T01:59:13.247Z,98047.13
2022-08-28T02:01:40.576Z,98041.63
2022-08-28T02:04:07.335Z,98045.59
2022-08-28T02:06:34.281Z,98057.25
2022-08-28T02:09:01.128Z,98064.44
2022-08-28T02:11:32.268Z,98064.06
2022-08-28T02:14:00.296Z,98071.91
2022-08-28T02:16:28.320Z,98063.22
2022-08-28T02:18:55.764Z,98061.53
2022-08-28T02:21:22.884Z,98063.22
2022-08-28T02:23:49.530Z,98065.28
2022-08-28T02:26:16.352Z,98073.00
2022-08-28T02:28:44.799Z,98075.63
2022-08-28T02:31:13.102Z,98072.78
2022-08-28T02:33:44.659Z,98079.13
2022-08-28T02:36:14.559Z,98077.03
2022-08-28T02:38:44.793Z,98072.25
2022-08-28T02:41:13.505Z,98070.34
2022-08-28T02:43:41.544Z,98075.31
2022-08-28T02:46:09.198Z,98074.16
2022-08-28T02:48:39.514Z,98072.66
2022-08-28T02:51:13.010Z,98077.66
2022-08-28T02:53:41.012Z,98072.72
2022-08-28T02:56:08.577Z,98068.09
2022-08-28T02:58:35.957Z,98077.66
2022-08-28T03:01:05.390Z,98068.22
2022-08-28T03:03:32.636Z,98066.34
2022-08-28T03:06:00.835Z,98065.88
2022-08-28T03:08:28.272Z,98063.13
2022-08-28T03:10:55.125Z,98063.41
2022-08-28T03:13:26.916Z,98062.41
2022-08-28T03:15:56.010Z,98054.84
2022-08-28T03:18:25.573Z,98055.03
2022-08-28T03:20:53.442Z,98049.06
2022-08-28T03:23:26.324Z,98056.44
2022-08-28T03:26:09.054Z,98045.31
2022-08-28T03:28:40.737Z,98042.44
2022-08-28T03:31:09.803Z,98044.03
2022-08-28T03:33:36.905Z,98039.97
2022-08-28T03:36:05.505Z,98038.28
2022-08-28T03:38:32.314Z,98046.63
2022-08-28T03:40:58.951Z,98042.69
2022-08-28T03:43:26.419Z,98051.78
2022-08-28T03:46:04.309Z,98060.16
2022-08-28T03:48:34.829Z,98065.63
2022-08-28T03:51:01.708Z,98067.66
2022-08-28T03:53:30.422Z,98081.50
2022-08-28T03:55:58.132Z,98081.66
2022-08-28T03:58:26.017Z,98085.06
2022-08-28T04:00:52.690Z,98099.25
2022-08-28T04:03:19.874Z,98104.56
2022-08-28T04:05:47.190Z,98101.44
2022-08-28T04:08:16.709Z,98109.13
2022-08-28T04:10:47.699Z,98101.03
2022-08-28T04:13:16.560Z,98101.34
2022-08-28T04:15:43.623Z,98102.50
2022-08-28T04:18:11.417Z,98104.88
2022-08-28T04:20:38.743Z,98109.78
2022-08-28T04:23:07.985Z,98106.69
2022-08-28T04:25:35.013Z,98107.38
2022-08-28T04:28:01.718Z,98112.84
2022-08-28T04:30:28.399Z,98115.38
2022-08-28T04:32:55.172Z,98113.69
2022-08-28T04:35:22.057Z,98118.75
2022-08-28T04:37:48.729Z,98119.06
2022-08-28T04:40:16.082Z,98108.13
2022-08-28T04:42:45.164Z,98114.09
2022-08-28T04:45:12.293Z,98116.81
2022-08-28T04:47:39.044Z,98114.94
2022-08-28T04:50:07.703Z,98118.72
2022-08-28T04:52:34.779Z,98116.81
2022-08-28T04:55:01.743Z,98111.34
2022-08-28T04:57:29.768Z,98111.84
2022-08-28T04:59:59.166Z,98110.44
2022-08-28T05:02:25.970Z,98117.13
2022-08-28T05:04:52.653Z,98114.59
2022-08-28T05:07:19.358Z,98116.47
2022-08-28T05:09:46.649Z,98111.00
2022-08-28T05:12:17.349Z,98111.19
2022-08-28T05:14:44.758Z,98106.91
2022-08-28T05:17:14.790Z,98113.78
2022-08-28T05:19:41.901Z,98121.72
2022-08-28T05:22:10.063Z,98116.59
2022-08-28T05:24:38.161Z,98106.00
2022-08-28T05:27:05.073Z,98106.22
2022-08-28T05:29:32.185Z,98112.34
2022-08-28T05:31:59.178Z,98106.31
2022-08-28T05:34:25.982Z,98106.25
2022-08-28T05:36:52.639Z,98107.22
2022-08-28T05:39:19.325Z,98110.09
2022-08-28T05:41:46.800Z,98107.84
2022-08-28T05:44:16.517Z,98105.38
2022-08-28T05:46:48.240Z,98117.13
2022-08-28T05:49:19.601Z,98106.94
2022-08-28T05:51:50.007Z,98095.94
2022-08-28T05:54:17.249Z,98100.75
2022-08-28T05:56:45.422Z,98105.38
2022-08-28T05:59:13.738Z,98110.75
2022-08-28T06:01:49.828Z,98112.94
2022-08-28T06:04:25.537Z,98107.09
2022-08-28T06:06:52.735Z,98107.84
2022-08-28T06:09:28.109Z,98115.81
2022-08-28T06:11:58.939Z,98115.69
2022-08-28T06:14:26.813Z,98108.88
2022-08-28T06:16:55.739Z,98105.63
2022-08-28T06:19:25.222Z,98114.59
2022-08-28T06:21:54.740Z,98112.84
2022-08-28T06:24:21.274Z,98111.31
2022-08-28T06:26:48.006Z,98101.06
2022-08-28T06:29:16.159Z,98105.00
2022-08-28T06:31:43.430Z,98101.66
2022-08-28T06:34:10.303Z,98099.66
2022-08-28T06:36:40.609Z,98103.28
2022-08-28T06:39:09.863Z,98099.06
2022-08-28T06:41:41.105Z,98105.56
2022-08-28T06:44:13.601Z,98104.44
2022-08-28T06:46:41.755Z,98104.53
2022-08-28T06:49:08.910Z,98102.06
2022-08-28T06:51:36.380Z,98097.91
2022-08-28T06:54:03.185Z,98098.63
2022-08-28T06:56:31.322Z,98104.59
2022-08-28T06:58:58.925Z,98108.50
2022-08-28T07:01:30.215Z,98102.38
2022-08-28T07:04:04.791Z,98113.88
2022-08-28T07:06:34.467Z,98112.41
2022-08-28T07:09:01.940Z,98114.81
2022-08-28T07:11:32.147Z,98109.94
2022-08-28T07:14:00.213Z,98114.03
2022-08-28T07:16:31.576Z,98121.44
2022-08-28T07:18:59.013Z,98108.56
2022-08-28T07:21:27.512Z,98109.59
2022-08-28T07:23:55.279Z,98111.31
2022-08-28T07:26:24.694Z,98108.56
2022-08-28T07:28:53.795Z,98110.66
2022-08-28T07:31:37.857Z,98108.34
2022-08-28T07:34:04.649Z,98103.88
2022-08-28T07:36:31.330Z,98106.84
2022-08-28T07:38:59.893Z,98107.28
2022-08-28T07:41:30.045Z,98109.78
2022-08-28T07:44:16.471Z,98100.69
2022-08-28T07:46:44.575Z,98108.94
2022-08-28T07:49:15.649Z,98104.66
2022-08-28T07:51:42.473Z,98110.81
2022-08-28T07:54:17.687Z,98105.28
2022-08-28T07:56:45.647Z,98106.53
2022-08-28T07:59:16.643Z,98108.47
2022-08-28T08:01:46.949Z,98109.31
2022-08-28T08:04:16.144Z,98109.50
2022-08-28T08:06:43.445Z,98114.34
2022-08-28T08:09:12.854Z,98104.72
2022-08-28T08:11:39.533Z,98111.88
2022-08-28T08:14:07.485Z,98120.94
2022-08-28T08:16:36.762Z,98120.50
2022-08-28T08:19:04.146Z,98115.38
2022-08-28T08:21:32.348Z,98118.84
2022-08-28T08:23:59.504Z,98118.25
2022-08-28T08:26:30.547Z,98122.88
2022-08-28T08:28:57.819Z,98123.97
2022-08-28T08:31:28.515Z,98118.84
2022-08-28T08:33:58.870Z,98119.28
2022-08-28T08:36:27.131Z,98127.00
2022-08-28T08:39:00.043Z,98114.72
2022-08-28T08:41:48.298Z,98124.16
2022-08-28T08:44:33.508Z,98125.41
2022-08-28T08:47:19.508Z,98117.75
2022-08-28T08:50:17.019Z,98117.53
2022-08-28T08:53:22.501Z,98122.41
2022-08-28T08:55:52.338Z,98120.09
2022-08-28T08:58:28.381Z,98126.69
2022-08-28T09:01:31.641Z,98128.09
2022-08-28T09:04:27.157Z,98128.81
2022-08-28T09:07:03.355Z,98127.84
2022-08-28T09:09:41.287Z,98136.69
2022-08-28T09:12:15.791Z,98139.22
2022-08-28T09:15:16.574Z,98138.66
2022-08-28T09:17:49.608Z,98142.59
2022-08-28T09:20:25.879Z,98146.84
2022-08-28T09:22:59.811Z,98142.88
2022-08-28T09:25:47.812Z,98130.72
2022-08-28T09:28:34.711Z,98140.84
2022-08-28T09:31:05.660Z,98140.84
2022-08-28T09:33:34.754Z,98136.44
2022-08-28T09:36:20.112Z,98142.97
2022-08-28T09:38:47.476Z,98149.44
2022-08-28T09:41:32.767Z,98142.06
2022-08-28T09:43:59.456Z,98142.88
2022-08-28T09:46:32.362Z,98137.72
2022-08-28T09:49:12.070Z,98143.66
2022-08-28T09:51:39.836Z,98138.59
2022-08-28T09:54:15.686Z,98145.16
2022-08-28T09:56:44.945Z,98138.84
2022-08-28T09:59:17.631Z,98136.66
2022-08-28T10:01:50.087Z,98138.47
2022-08-28T10:04:53.933Z,98139.13
2022-08-28T10:07:32.491Z,98140.41
2022-08-28T10:10:27.615Z,98139.66
2022-08-28T10:13:01.613Z,98148.19
2022-08-28T10:16:06.236Z,98147.56
2022-08-28T10:18:51.721Z,98145.34
2022-08-28T10:21:22.237Z,98156.53
2022-08-28T10:24:11.887Z,98148.03
2022-08-28T10:26:44.374Z,98156.25
2022-08-28T10:29:38.522Z,98151.63
2022-08-28T10:32:17.442Z,98147.25
2022-08-28T10:35:06.979Z,98150.47
2022-08-28T10:37:53.681Z,98141.84
2022-08-28T10:40:29.463Z,98145.81
2022-08-28T10:43:04.258Z,98141.13
2022-08-28T10:45:33.459Z,98151.22
2022-08-28T10:48:21.464Z,98147.19
2022-08-28T10:50:54.550Z,98144.81
2022-08-28T10:53:54.353Z,98143.47
2022-08-28T10:56:25.859Z,98141.91
2022-08-28T10:58:57.497Z,98137.94
2022-08-28T11:01:29.589Z,98131.47
2022-08-28T11:03:59.905Z,98127.38
2022-08-28T11:06:50.487Z,98134.00
2022-08-28T11:09:37.251Z,98136.47
2022-08-28T11:12:09.810Z,98127.50
2022-08-28T11:14:47.581Z,98129.56
2022-08-28T11:17:27.932Z,98134.16
2022-08-28T11:20:21.421Z,98136.41
2022-08-28T11:23:17.295Z,98124.66
2022-08-28T11:25:54.859Z,98133.00
2022-08-28T11:28:25.232Z,98138.28
2022-08-28T11:31:01.011Z,98139.06
2022-08-28T11:33:45.429Z,98130.88
2022-08-28T11:36:21.706Z,98130.91
2022-08-28T11:38:54.403Z,98115.38
2022-08-28T11:41:36.878Z,98107.69
2022-08-28T11:44:09.553Z,98105.56
2022-08-28T11:46:40.282Z,98104.25
2022-08-28T11:49:29.346Z,98099.97
2022-08-28T11:51:55.978Z,98116.25
2022-08-28T11:54:55.661Z,98109.75
2022-08-28T11:57:43.858Z,98107.19
2022-08-28T12:00:21.408Z,98106.28
2022-08-28T12:02:52.055Z,98109.75
2022-08-28T12:05:18.779Z,98106.19
2022-08-28T12:07:53.869Z,98107.78
2022-08-28T12:10:20.573Z,98108.59
2022-08-28T12:12:47.311Z,98105.69
2022-08-28T12:15:27.727Z,98101.16
2022-08-28T12:17:58.860Z,98105.56
2022-08-28T12:20:34.461Z,98097.88
2022-08-28T12:23:05.348Z,98113.00
2022-08-28T12:25:37.238Z,98107.81
2022-08-28T12:28:18.692Z,98095.56
2022-08-28T12:30:57.683Z,98100.28
2022-08-28T12:33:42.728Z,98093.25
2022-08-28T12:36:15.792Z,98098.50
2022-08-28T12:38:49.742Z,98094.63
2022-08-28T12:41:18.143Z,98094.81
2022-08-28T12:43:50.705Z,98094.81
2022-08-28T12:46:25.912Z,98096.91
2022-08-28T12:48:59.854Z,98108.50
2022-08-28T12:51:30.750Z,98108.78
2022-08-28T12:54:00.460Z,98122.59
2022-08-28T12:56:34.176Z,98116.78
2022-08-28T12:59:32.982Z,98125.94
2022-08-28T13:02:28.156Z,98123.19
2022-08-28T13:05:00.015Z,98120.19
2022-08-28T13:07:40.712Z,98108.53
2022-08-28T13:10:19.499Z,98106.91
2022-08-28T13:12:54.665Z,98116.41
2022-08-28T13:15:47.736Z,98108.31
2022-08-28T13:18:53.726Z,98111.34
2022-08-28T13:21:33.679Z,98117.84
2022-08-28T13:24:28.469Z,98129.25
2022-08-28T13:27:03.144Z,98119.97
2022-08-28T13:29:31.155Z,98115.66
2022-08-28T13:32:02.415Z,98135.59
2022-08-28T13:34:35.837Z,98129.66
2022-08-28T13:37:14.810Z,98138.25
2022-08-28T13:39:47.190Z,98152.63
2022-08-28T13:42:17.113Z,98157.16
2022-08-28T13:44:49.421Z,98165.69
2022-08-28T13:47:18.158Z,98167.72
2022-08-28T13:49:46.729Z,98169.66
2022-08-28T13:52:13.561Z,98170.00
2022-08-28T13:54:43.812Z,98181.16
2022-08-28T13:57:13.630Z,98168.63
2022-08-28T13:59:42.123Z,98169.63
2022-08-28T14:02:30.324Z,98170.38
2022-08-28T14:04:57.137Z,98164.66
2022-08-28T14:07:23.827Z,98167.41
2022-08-28T14:09:55.500Z,98160.47
2022-08-28T14:12:28.618Z,98168.34
2022-08-28T14:15:00.571Z,98170.09
2022-08-28T14:17:27.248Z,98148.56
2022-08-28T14:19:53.972Z,98155.56
2022-08-28T14:22:20.681Z,98149.47
2022-08-28T14:24:47.376Z,98154.16
2022-08-28T14:27:14.154Z,98163.69
2022-08-28T14:29:40.956Z,98165.41
2022-08-28T14:32:07.911Z,98159.47
2022-08-28T14:34:34.858Z,98165.53
2022-08-28T14:37:03.128Z,98176.97
2022-08-28T14:39:31.410Z,98176.50
2022-08-28T14:41:58.188Z,98179.63
2022-08-28T14:44:25.597Z,98188.06
2022-08-28T14:46:54.657Z,98191.09
2022-08-28T14:49:24.422Z,98204.00
2022-08-28T14:51:51.969Z,98216.09
2022-08-28T14:54:21.197Z,98217.38
2022-08-28T14:56:48.871Z,98223.91
2022-08-28T14:59:24.382Z,98223.88
2022-08-28T15:01:53.676Z,98221.13
2022-08-28T15:04:23.644Z,98231.91
2022-08-28T15:06:55.050Z,98232.56
2022-08-28T15:09:21.778Z,98234.50
2022-08-28T15:11:48.486Z,98245.13
2022-08-28T15:14:15.334Z,98235.34
2022-08-28T15:16:47.173Z,98243.34
2022-08-28T15:19:18.094Z,98252.06
2022-08-28T15:21:49.349Z,98247.28
2022-08-28T15:24:18.443Z,98253.19
2022-08-28T15:26:45.189Z,98258.56
2022-08-28T15:29:12.213Z,98266.47
2022-08-28T15:31:44.552Z,98258.03
2022-08-28T15:34:18.990Z,98255.16
2022-08-28T15:36:54.801Z,98259.41
2022-08-28T15:39:45.200Z,98260.38
2022-08-28T15:42:12.301Z,98270.19
2022-08-28T15:44:39.116Z,98264.91
2022-08-28T15:47:06.663Z,98268.50
2022-08-28T15:49:44.610Z,98275.69
2022-08-28T15:52:16.314Z,98267.84
2022-08-28T15:54:43.026Z,98273.03
2022-08-28T15:57:10.101Z,98271.91
2022-08-28T15:59:48.551Z,98271.44
2022-08-28T16:02:21.247Z,98270.69
2022-08-28T16:04:48.714Z,98267.00
2022-08-28T16:07:15.932Z,98258.50
2022-08-28T16:09:42.805Z,98249.97
2022-08-28T16:12:09.537Z,98256.19
2022-08-28T16:14:36.882Z,98255.16
2022-08-28T16:17:05.787Z,98252.97
2022-08-28T16:19:38.351Z,98251.19
2022-08-28T16:22:05.176Z,98251.97
2022-08-28T16:24:31.924Z,98257.63
2022-08-28T16:26:59.590Z,98252.22
2022-08-28T16:29:26.411Z,98245.50
2022-08-28T16:31:53.307Z,98239.34
2022-08-28T16:34:20.438Z,98239.34
2022-08-28T16:36:48.802Z,98238.00
2022-08-28T16:39:15.527Z,98237.22
2022-08-28T16:41:43.255Z,98230.00
2022-08-28T16:44:11.211Z,98226.63
2022-08-28T16:46:38.056Z,98235.44
2022-08-28T16:49:04.868Z,98234.47
2022-08-28T16:51:31.874Z,98242.22
2022-08-28T16:53:58.778Z,98234.94
2022-08-28T16:56:26.653Z,98233.81
2022-08-28T16:58:53.659Z,98237.69
2022-08-28T17:01:24.222Z,98240.53
2022-08-28T17:03:54.831Z,98241.00
2022-08-28T17:06:28.963Z,98244.50
2022-08-28T17:08:57.327Z,98250.34
2022-08-28T17:11:27.717Z,98255.56
2022-08-28T17:13:55.835Z,98257.63
2022-08-28T17:16:24.577Z,98257.44
2022-08-28T17:18:54.502Z,98259.81
2022-08-28T17:21:40.695Z,98259.81
2022-08-28T17:24:09.494Z,98256.03
2022-08-28T17:26:36.214Z,98262.38
2022-08-28T17:29:03.409Z,98263.56
2022-08-28T17:31:30.398Z,98269.91
2022-08-28T17:33:57.395Z,98271.78
2022-08-28T17:36:33.019Z,98275.75
2022-08-28T17:39:05.723Z,98270.34
2022-08-28T17:41:33.616Z,98277.78
2022-08-28T17:44:01.374Z,98276.63
2022-08-28T17:46:30.203Z,98280.28
2022-08-28T17:49:02.461Z,98273.00
2022-08-28T17:51:33.846Z,98277.53
2022-08-28T17:54:10.413Z,98272.09
2022-08-28T17:56:37.182Z,98267.34
2022-08-28T17:59:05.660Z,98268.25
2022-08-28T18:01:32.443Z,98276.00
2022-08-28T18:03:59.204Z,98272.75
2022-08-28T18:06:26.064Z,98269.84
2022-08-28T18:08:52.970Z,98269.34
2022-08-28T18:11:19.659Z,98268.16
2022-08-28T18:13:46.989Z,98278.63
2022-08-28T18:16:15.474Z,98276.44
2022-08-28T18:18:42.933Z,98282.06
2022-08-28T18:21:11.480Z,98279.06
2022-08-28T18:23:40.346Z,98285.72
2022-08-28T18:26:08.833Z,98286.09
2022-08-28T18:28:36.361Z,98286.44
2022-08-28T18:31:06.292Z,98295.66
2022-08-28T18:33:34.572Z,98299.44
2022-08-28T18:36:01.334Z,98303.88
2022-08-28T18:38:28.701Z,98305.75
2022-08-28T18:40:56.420Z,98304.75
2022-08-28T18:43:24.086Z,98311.22
2022-08-28T18:45:51.476Z,98312.78
2022-08-28T18:48:19.338Z,98315.53
2022-08-28T18:50:47.523Z,98322.34
2022-08-28T18:53:15.746Z,98330.34
2022-08-28T18:55:42.443Z,98327.97
2022-08-28T18:58:09.214Z,98330.03
2022-08-28T19:00:42.401Z,98336.00
2022-08-28T19:03:09.665Z,98331.88
2022-08-28T19:05:37.269Z,98339.38
2022-08-28T19:08:04.708Z,98342.25
2022-08-28T19:10:34.369Z,98332.47
2022-08-28T19:13:04.634Z,98345.25
2022-08-28T19:15:33.006Z,98339.44
2022-08-28T19:18:00.873Z,98339.44
2022-08-28T19:20:29.015Z,98352.78
2022-08-28T19:22:57.126Z,98344.00
2022-08-28T19:25:28.309Z,98339.38
2022-08-28T19:27:59.206Z,98340.25
2022-08-28T19:30:28.119Z,98340.25
2022-08-28T19:32:55.104Z,98339.22
2022-08-28T19:35:24.315Z,98352.72
2022-08-28T19:37:54.980Z,98345.06
2022-08-28T19:40:23.112Z,98345.06
2022-08-28T19:42:50.321Z,98347.59
2022-08-28T19:45:18.073Z,98357.34
2022-08-28T19:47:46.053Z,98355.47
2022-08-28T19:50:15.420Z,98361.09
2022-08-28T19:52:43.589Z,98366.97
2022-08-28T19:55:29.780Z,98370.59
2022-08-28T19:57:56.796Z,98360.00
2022-08-28T20:00:31.851Z,98373.19
2022-08-28T20:03:02.036Z,98371.66
2022-08-28T20:05:28.968Z,98369.09
2022-08-28T20:07:55.723Z,98374.91
2022-08-28T20:10:22.419Z,98384.16
2022-08-28T20:12:49.179Z,98376.97
2022-08-28T20:15:19.140Z,98380.06
2022-08-28T20:17:49.613Z,98385.22
2022-08-28T20:20:19.106Z,98384.38
2022-08-28T20:22:45.939Z,98384.53
2022-08-28T20:25:13.425Z,98390.53
2022-08-28T20:27:43.116Z,98391.59
2022-08-28T20:30:11.530Z,98390.91
2022-08-28T20:32:40.349Z,98387.31
2022-08-28T20:35:09.509Z,98391.06
2022-08-28T20:37:44.722Z,98393.81
2022-08-28T20:40:18.250Z,98394.84
2022-08-28T20:42:46.136Z,98392.47
2022-08-28T20:45:14.295Z,98409.06
2022-08-28T20:47:41.075Z,98405.81
2022-08-28T20:50:09.347Z,98402.41
2022-08-28T20:52:36.132Z,98401.22
2022-08-28T20:55:03.632Z,98397.28
2022-08-28T20:57:30.578Z,98410.47
2022-08-28T21:00:02.234Z,98408.91
2022-08-28T21:02:32.151Z,98407.56
2022-08-28T21:04:59.223Z,98410.16
2022-08-28T21:07:26.640Z,98411.03
2022-08-28T21:10:05.890Z,98409.84
2022-08-28T21:12:35.743Z,98406.59
2022-08-28T21:15:02.858Z,98414.44
2022-08-28T21:17:30.667Z,98410.88
2022-08-28T21:20:05.111Z,98417.88
2022-08-28T21:22:34.554Z,98417.88
2022-08-28T21:25:04.860Z,98418.19
2022-08-28T21:27:31.727Z,98414.63
2022-08-28T21:30:00.181Z,98421.63
2022-08-28T21:32:28.933Z,98418.22
2022-08-28T21:34:55.763Z,98423.50
2022-08-28T21:37:23.122Z,98422.13
2022-08-28T21:39:49.944Z,98426.72
2022-08-28T21:42:17.013Z,98424.84
2022-08-28T21:44:51.276Z,98426.72
2022-08-28T21:47:22.006Z,98428.75
2022-08-28T21:49:50.823Z,98423.91
2022-08-28T21:52:18.734Z,98429.72
2022-08-28T21:54:46.177Z,98427.31
2022-08-28T21:57:12.915Z,98439.50
2022-08-28T21:59:39.615Z,98437.25
2022-08-28T22:02:07.129Z,98423.38
2022-08-28T22:04:34.863Z,98426.25
2022-08-28T22:07:01.888Z,98429.69
2022-08-28T22:09:29.163Z,98431.41
2022-08-28T22:11:55.905Z,98435.50
2022-08-28T22:14:25.400Z,98433.13
2022-08-28T22:16:52.410Z,98430.63
2022-08-28T22:19:19.303Z,98432.50
2022-08-28T22:22:04.627Z,98435.91
2022-08-28T22:24:31.319Z,98427.56
2022-08-28T22:26:57.990Z,98434.56
2022-08-28T22:29:25.701Z,98432.66
2022-08-28T22:31:52.961Z,98436.28
2022-08-28T22:34:19.945Z,98436.97
2022-08-28T22:36:47.132Z,98439.53
2022-08-28T22:39:14.085Z,98432.19
2022-08-28T22:41:40.833Z,98438.31
2022-08-28T22:44:08.074Z,98445.47
2022-08-28T22:46:36.228Z,98443.47
2022-08-28T22:49:03.395Z,98440.72
2022-08-28T22:51:30.414Z,98443.28
2022-08-28T22:53:57.261Z,98443.09
2022-08-28T22:56:24.050Z,98443.63
2022-08-28T22:58:50.835Z,98450.09
2022-08-28T23:01:21.857Z,98452.28
2022-08-28T23:03:49.112Z,98452.97
2022-08-28T23:06:16.198Z,98454.88
2022-08-28T23:08:43.652Z,98446.31
2022-08-28T23:11:10.977Z,98438.66
2022-08-28T23:13:38.082Z,98450.25
2022-08-28T23:16:05.847Z,98449.78
2022-08-28T23:18:46.318Z,98448.41
2022-08-28T23:21:21.559Z,98447.56
2022-08-28T23:23:50.317Z,98455.56
2022-08-28T23:26:18.150Z,98453.72
2022-08-28T23:28:44.991Z,98453.72
2022-08-28T23:31:11.664Z,98452.66
2022-08-28T23:33:38.455Z,98449.63
2022-08-28T23:36:05.967Z,98458.34
2022-08-28T23:38:36.599Z,98450.13
2022-08-28T23:41:07.773Z,98445.53
2022-08-28T23:43:34.893Z,98452.00
2022-08-28T23:46:01.912Z,98455.44
2022-08-28T23:48:29.508Z,98456.28
2022-08-28T23:50:56.192Z,98456.63
2022-08-28T23:53:22.905Z,98458.34
2022-08-28T23:55:50.013Z,98450.66
2022-08-28T23:58:20.721Z,98450.66
